Time;durP1;ratioP1;P1;durP2;ratioP2;P2;SDS_P1;SDS_P2;PMS_P1;PMS_P2;Temp;Humidity;BMP_temperature;BMP_pressure;BME280_temperature;BME280_humidity;BME280_pressure;Samples;Min_cycle;Max_cycle;Signal;HPM_P1;HPM_P2
2023/12/28 00:01:09;;;;;;;;;;;12.00;88.30;;;;;;5004121;28;19916;-81
2023/12/28 00:03:35;;;;;;;;;;;12.40;89.00;;;;;;5004980;28;19910;-81
2023/12/28 00:06:00;;;;;;;;;;;12.00;88.60;;;;;;5004459;28;19914;-81
2023/12/28 00:08:25;;;;;;;;;;;12.00;88.80;;;;;;5003870;28;19921;-81
2023/12/28 00:10:51;;;;;;;;;;;12.00;88.70;;;;;;5004465;28;19924;-81
2023/12/28 00:13:17;;;;;;;;;;;12.00;88.80;;;;;;5005638;28;19910;-81
2023/12/28 00:15:42;;;;;;;;;;;12.10;89.00;;;;;;5022255;28;19909;-81
2023/12/28 00:18:08;;;;;;;;;;;12.00;89.00;;;;;;5003990;28;19918;-81
2023/12/28 00:20:33;;;;;;;;;;;12.10;88.90;;;;;;5004099;28;19935;-81
2023/12/28 00:23:00;;;;;;;;;;;12.00;88.60;;;;;;5000961;28;19952;-81
2023/12/28 00:25:26;;;;;;;;;;;12.00;88.80;;;;;;5000628;28;19917;-81
2023/12/28 00:27:51;;;;;;;;;;;12.00;88.90;;;;;;5000038;28;19960;-80
2023/12/28 00:30:17;;;;;;;;;;;12.00;88.90;;;;;;5000673;28;19964;-81
2023/12/28 00:32:46;;;;;;;;;;;12.10;88.80;;;;;;5001351;28;19959;-81
2023/12/28 00:35:11;;;;;;;;;;;12.00;89.00;;;;;;5000887;28;19940;-81
2023/12/28 00:37:37;;;;;;;;;;;12.00;89.10;;;;;;5001020;28;19909;-81
2023/12/28 00:40:02;;;;;;;;;;;12.00;89.00;;;;;;5001309;28;19913;-81
2023/12/28 00:42:28;;;;;;;;;;;12.00;89.10;;;;;;5000908;28;19911;-81
2023/12/28 00:44:53;;;;;;;;;;;12.00;89.20;;;;;;5000707;28;19909;-81
2023/12/28 00:47:19;;;;;;;;;;;12.00;89.10;;;;;;5001629;28;19916;-81
2023/12/28 00:49:44;;;;;;;;;;;12.00;89.10;;;;;;5002919;28;19913;-81
2023/12/28 00:52:09;;;;;;;;;;;12.00;88.90;;;;;;5020533;28;19910;-81
2023/12/28 00:54:38;;;;;;;;;;;12.00;88.90;;;;;;5003073;28;19909;-82
2023/12/28 00:57:04;;;;;;;;;;;12.00;89.20;;;;;;5001679;28;19979;-81
2023/12/28 00:59:29;;;;;;;;;;;12.00;89.00;;;;;;5000410;28;19913;-81
2023/12/28 01:01:55;;;;;;;;;;;12.00;89.10;;;;;;4999734;28;19984;-81
2023/12/28 01:04:23;;;;;;;;;;;12.00;88.80;;;;;;5000177;28;19917;-81
2023/12/28 01:06:48;;;;;;;;;;;12.00;89.10;;;;;;4999506;28;20009;-81
2023/12/28 01:09:14;;;;;;;;;;;12.00;89.30;;;;;;4999929;28;19960;-81
2023/12/28 01:11:39;;;;;;;;;;;12.00;89.20;;;;;;5001072;28;19909;-81
2023/12/28 01:14:05;;;;;;;;;;;12.00;89.20;;;;;;5000762;28;19910;-81
2023/12/28 01:16:30;;;;;;;;;;;12.00;89.10;;;;;;5000312;28;19913;-81
2023/12/28 01:18:56;;;;;;;;;;;12.00;89.00;;;;;;4999843;28;19913;-81
2023/12/28 01:21:21;;;;;;;;;;;12.00;89.20;;;;;;5000878;28;19913;-81
2023/12/28 01:23:47;;;;;;;;;;;12.00;89.30;;;;;;5001624;28;19910;-81
2023/12/28 01:26:14;;;;;;;;;;;12.00;89.20;;;;;;5002226;28;19986;-81
2023/12/28 01:28:39;;;;;;;;;;;12.00;89.10;;;;;;5003743;28;19910;-81
2023/12/28 01:31:04;;;;;;;;;;;12.00;89.30;;;;;;5004871;28;19916;-81
2023/12/28 01:33:30;;;;;;;;;;;12.00;89.40;;;;;;5004974;28;19910;-81
2023/12/28 01:35:55;;;;;;;;;;;12.00;89.40;;;;;;5003760;28;20358;-81
2023/12/28 01:38:21;;;;;;;;;;;12.00;89.50;;;;;;5004245;28;19968;-81
2023/12/28 01:40:46;;;;;;;;;;;12.00;89.00;;;;;;5022676;28;20386;-81
2023/12/28 01:43:12;;;;;;;;;;;12.00;89.50;;;;;;5004256;28;19932;-81
2023/12/28 01:45:37;;;;;;;;;;;12.00;89.40;;;;;;5021296;28;19917;-81
2023/12/28 01:48:03;;;;;;;;;;;12.00;89.70;;;;;;5002470;28;19937;-80
2023/12/28 01:50:31;;;;;;;;;;;12.00;89.50;;;;;;5002891;28;19964;-81
2023/12/28 01:52:58;;;;;;;;;;;12.00;89.30;;;;;;5002312;28;19965;-81
2023/12/28 01:55:24;;;;;;;;;;;12.00;89.60;;;;;;5002436;28;20289;-80
2023/12/28 01:57:50;;;;;;;;;;;11.90;89.50;;;;;;4999434;28;19990;-81
2023/12/28 02:00:15;;;;;;;;;;;12.10;89.70;;;;;;4997915;28;19913;-81
2023/12/28 02:02:41;;;;;;;;;;;12.00;89.50;;;;;;4998293;28;19952;-81
2023/12/28 02:05:07;;;;;;;;;;;12.00;89.40;;;;;;4998771;28;20615;-80
2023/12/28 02:07:33;;;;;;;;;;;12.00;89.50;;;;;;4998519;28;19917;-81
2023/12/28 02:09:59;;;;;;;;;;;12.00;89.60;;;;;;4999078;28;19915;-81
2023/12/28 02:12:24;;;;;;;;;;;12.00;89.60;;;;;;4998591;28;20000;-81
2023/12/28 02:14:49;;;;;;;;;;;12.00;89.30;;;;;;4999223;28;20011;-81
2023/12/28 02:17:25;;;;;;;;;;;12.00;89.60;;;;;;4998857;28;19980;-80
2023/12/28 02:19:52;;;;;;;;;;;12.00;89.50;;;;;;4999735;28;20469;-81
2023/12/28 02:22:18;;;;;;;;;;;12.00;89.60;;;;;;5001521;28;20469;-81
2023/12/28 02:24:54;;;;;;;;;;;12.00;89.60;;;;;;4999240;28;19916;-80
2023/12/28 02:27:20;;;;;;;;;;;12.00;89.80;;;;;;4999188;28;19910;-81
2023/12/28 02:29:45;;;;;;;;;;;12.00;89.70;;;;;;4999195;28;19910;-81
2023/12/28 02:32:11;;;;;;;;;;;12.00;89.70;;;;;;4999326;28;19913;-81
2023/12/28 02:34:39;;;;;;;;;;;12.00;89.50;;;;;;4999370;28;19917;-81
2023/12/28 02:37:04;;;;;;;;;;;12.00;89.60;;;;;;4999487;28;19979;-81
2023/12/28 02:39:30;;;;;;;;;;;12.00;89.60;;;;;;5002505;28;20370;-81
2023/12/28 02:41:55;;;;;;;;;;;12.00;90.10;;;;;;5002854;28;19916;-81
2023/12/28 02:44:21;;;;;;;;;;;12.00;89.70;;;;;;5002253;28;19914;-81
2023/12/28 02:46:46;;;;;;;;;;;12.00;89.50;;;;;;5002181;28;19921;-81
2023/12/28 02:49:12;;;;;;;;;;;12.00;89.70;;;;;;5004750;28;19916;-81
2023/12/28 02:51:37;;;;;;;;;;;12.00;89.80;;;;;;5005122;28;19916;-81
2023/12/28 02:54:03;;;;;;;;;;;12.00;89.70;;;;;;5004782;28;19917;-81
2023/12/28 02:56:29;;;;;;;;;;;12.00;89.80;;;;;;5004472;28;20313;-81
2023/12/28 02:58:55;;;;;;;;;;;12.00;89.30;;;;;;5004498;28;20083;-81
2023/12/28 03:01:20;;;;;;;;;;;12.00;89.60;;;;;;5004569;28;20038;-81
2023/12/28 03:03:45;;;;;;;;;;;12.10;89.80;;;;;;5004534;28;19916;-81
2023/12/28 03:06:11;;;;;;;;;;;12.00;89.60;;;;;;5017562;28;19913;-81
2023/12/28 03:08:36;;;;;;;;;;;12.00;89.50;;;;;;4997697;28;19910;-81
2023/12/28 03:11:02;;;;;;;;;;;11.90;89.60;;;;;;5009756;28;20284;-81
2023/12/28 03:13:27;;;;;;;;;;;12.00;89.60;;;;;;5027316;28;19984;-81
2023/12/28 03:15:53;;;;;;;;;;;12.00;89.60;;;;;;5026529;28;19909;-81
2023/12/28 03:18:18;;;;;;;;;;;12.00;89.60;;;;;;5026698;28;19921;-81
2023/12/28 03:20:44;;;;;;;;;;;12.00;89.30;;;;;;5024719;28;19988;-81
2023/12/28 03:23:11;;;;;;;;;;;12.00;89.40;;;;;;5023245;28;19924;-81
2023/12/28 03:25:36;;;;;;;;;;;12.00;89.50;;;;;;5023607;28;19910;-81
2023/12/28 03:28:02;;;;;;;;;;;12.00;89.40;;;;;;5023810;28;19913;-81
2023/12/28 03:30:27;;;;;;;;;;;12.00;89.50;;;;;;5023180;28;19910;-81
2023/12/28 03:32:53;;;;;;;;;;;12.00;89.60;;;;;;5041717;28;19950;-81
2023/12/28 03:35:18;;;;;;;;;;;12.00;89.50;;;;;;5024291;28;19953;-81
2023/12/28 03:37:44;;;;;;;;;;;12.00;89.90;;;;;;5043616;28;19967;-81
2023/12/28 03:40:10;;;;;;;;;;;12.00;89.70;;;;;;5027252;28;19967;-81
2023/12/28 03:42:36;;;;;;;;;;;12.00;89.80;;;;;;5022645;28;19909;-82
2023/12/28 03:45:01;;;;;;;;;;;12.00;89.60;;;;;;5040472;28;20005;-81
2023/12/28 03:47:27;;;;;;;;;;;12.10;89.80;;;;;;5023681;28;20001;-81
2023/12/28 03:49:52;;;;;;;;;;;11.90;89.60;;;;;;5023360;28;19916;-81
2023/12/28 03:52:18;;;;;;;;;;;11.90;89.70;;;;;;5022539;28;19910;-81
2023/12/28 03:54:43;;;;;;;;;;;12.00;89.60;;;;;;5024136;28;19909;-81
2023/12/28 03:57:10;;;;;;;;;;;12.00;89.70;;;;;;5024103;28;19909;-81
2023/12/28 03:59:35;;;;;;;;;;;12.00;89.50;;;;;;5024716;28;19913;-81
2023/12/28 04:02:01;;;;;;;;;;;12.00;89.60;;;;;;5026458;28;20008;-81
2023/12/28 04:04:26;;;;;;;;;;;12.00;89.50;;;;;;5026371;28;20040;-81
2023/12/28 04:06:51;;;;;;;;;;;11.90;89.80;;;;;;5022758;28;20031;-81
2023/12/28 04:09:17;;;;;;;;;;;12.00;89.50;;;;;;5025393;28;20519;-81
2023/12/28 04:11:42;;;;;;;;;;;12.00;89.80;;;;;;5025533;28;19989;-81
2023/12/28 04:14:08;;;;;;;;;;;12.00;89.70;;;;;;5025679;28;19989;-81
2023/12/28 04:16:34;;;;;;;;;;;12.00;89.70;;;;;;5025452;28;20008;-81
2023/12/28 04:18:59;;;;;;;;;;;12.00;89.30;;;;;;5026427;28;19914;-81
2023/12/28 04:21:25;;;;;;;;;;;12.00;89.50;;;;;;5026611;28;19909;-81
2023/12/28 04:23:50;;;;;;;;;;;11.90;89.30;;;;;;5025468;28;19909;-81
2023/12/28 04:26:17;;;;;;;;;;;11.90;89.60;;;;;;5026456;28;19909;-81
2023/12/28 04:28:43;;;;;;;;;;;12.00;90.00;;;;;;5026304;28;20277;-81
2023/12/28 04:31:08;;;;;;;;;;;11.90;89.30;;;;;;5027445;28;19909;-81
2023/12/28 04:33:34;;;;;;;;;;;11.90;89.40;;;;;;5027438;28;19913;-81
2023/12/28 04:36:05;;;;;;;;;;;12.00;89.70;;;;;;5026302;28;19984;-81
2023/12/28 04:38:31;;;;;;;;;;;11.90;89.60;;;;;;5027238;28;19910;-81
2023/12/28 04:40:57;;;;;;;;;;;12.00;89.70;;;;;;5027798;28;19978;-81
2023/12/28 04:43:23;;;;;;;;;;;12.00;89.70;;;;;;5026715;28;19916;-81
2023/12/28 04:45:49;;;;;;;;;;;12.00;89.70;;;;;;5026909;28;19916;-81
2023/12/28 04:48:15;;;;;;;;;;;12.00;89.30;;;;;;5026942;28;19909;-81
2023/12/28 04:50:40;;;;;;;;;;;12.00;89.70;;;;;;5025687;28;19913;-81
2023/12/28 04:53:05;;;;;;;;;;;12.00;89.80;;;;;;5025331;28;19959;-81
2023/12/28 04:55:31;;;;;;;;;;;11.90;89.30;;;;;;5018081;28;19963;-81
2023/12/28 04:57:56;;;;;;;;;;;11.90;90.00;;;;;;5025474;28;19913;-81
2023/12/28 05:00:22;;;;;;;;;;;11.90;89.80;;;;;;5026229;28;19913;-81
2023/12/28 05:02:47;;;;;;;;;;;12.00;89.70;;;;;;5026144;28;20285;-81
2023/12/28 05:05:13;;;;;;;;;;;11.90;89.50;;;;;;5020866;28;19916;-81
2023/12/28 05:07:38;;;;;;;;;;;12.00;89.50;;;;;;4991550;28;19910;-81
2023/12/28 05:10:04;;;;;;;;;;;11.90;89.90;;;;;;4987772;28;19910;-81
2023/12/28 05:12:29;;;;;;;;;;;11.90;89.60;;;;;;4985842;28;19910;-81
2023/12/28 05:14:55;;;;;;;;;;;12.00;89.50;;;;;;4986959;28;19910;-80
2023/12/28 05:17:20;;;;;;;;;;;12.00;89.50;;;;;;4985936;28;19972;-81
2023/12/28 05:19:46;;;;;;;;;;;12.00;89.50;;;;;;4991754;28;19913;-81
2023/12/28 05:22:12;;;;;;;;;;;12.00;89.80;;;;;;4992666;28;19914;-81
2023/12/28 05:24:37;;;;;;;;;;;12.00;89.50;;;;;;5005602;28;19913;-81
2023/12/28 05:27:03;;;;;;;;;;;12.00;89.90;;;;;;5004478;28;19931;-81
2023/12/28 05:29:28;;;;;;;;;;;11.90;89.50;;;;;;5010759;28;19909;-81
2023/12/28 05:31:54;;;;;;;;;;;12.00;89.70;;;;;;5026950;28;19932;-81
2023/12/28 05:34:19;;;;;;;;;;;12.00;89.70;;;;;;5042888;28;19952;-81
2023/12/28 05:36:48;;;;;;;;;;;12.00;89.50;;;;;;5026694;28;19916;-82
2023/12/28 05:39:13;;;;;;;;;;;12.00;89.90;;;;;;5028913;28;19972;-81
2023/12/28 05:41:39;;;;;;;;;;;11.90;89.50;;;;;;5031150;28;19916;-81
2023/12/28 05:44:05;;;;;;;;;;;11.90;89.60;;;;;;5030344;28;19952;-81
2023/12/28 05:46:30;;;;;;;;;;;11.90;89.90;;;;;;5028333;28;19913;-81
2023/12/28 05:48:56;;;;;;;;;;;12.00;89.60;;;;;;5026094;28;19916;-81
2023/12/28 05:51:21;;;;;;;;;;;12.00;89.30;;;;;;5027660;28;19913;-81
2023/12/28 05:53:46;;;;;;;;;;;11.90;89.70;;;;;;5025906;28;20316;-81
2023/12/28 05:56:12;;;;;;;;;;;12.00;89.90;;;;;;5026142;28;20288;-81
2023/12/28 05:58:38;;;;;;;;;;;12.00;89.70;;;;;;5026600;28;19909;-81
2023/12/28 06:01:04;;;;;;;;;;;12.00;89.80;;;;;;5026331;28;19976;-81
2023/12/28 06:03:30;;;;;;;;;;;12.00;89.70;;;;;;5026881;28;19909;-81
2023/12/28 06:05:56;;;;;;;;;;;12.00;89.60;;;;;;5027226;28;19932;-81
2023/12/28 06:08:21;;;;;;;;;;;11.90;89.70;;;;;;5029835;28;19917;-81
2023/12/28 06:10:46;;;;;;;;;;;11.90;89.80;;;;;;5030107;28;19909;-81
2023/12/28 06:13:12;;;;;;;;;;;11.90;89.70;;;;;;5029922;28;19919;-80
2023/12/28 06:15:37;;;;;;;;;;;11.90;89.70;;;;;;5047443;28;20401;-81
2023/12/28 06:18:04;;;;;;;;;;;12.00;89.70;;;;;;5027892;28;19921;-81
2023/12/28 06:20:29;;;;;;;;;;;11.90;89.70;;;;;;5027139;28;20381;-81
2023/12/28 06:22:55;;;;;;;;;;;11.90;89.60;;;;;;5027487;28;19909;-81
2023/12/28 06:25:20;;;;;;;;;;;11.90;89.70;;;;;;5027877;28;19909;-81
2023/12/28 06:27:46;;;;;;;;;;;12.00;89.60;;;;;;5027136;28;20040;-81
2023/12/28 06:30:11;;;;;;;;;;;12.00;89.50;;;;;;5028072;28;19936;-81
2023/12/28 06:32:37;;;;;;;;;;;11.90;89.90;;;;;;5026286;28;19920;-81
2023/12/28 06:35:02;;;;;;;;;;;12.00;89.60;;;;;;5004679;28;20005;-81
2023/12/28 06:37:28;;;;;;;;;;;11.90;89.60;;;;;;5007622;28;19910;-81
2023/12/28 06:39:53;;;;;;;;;;;11.90;89.60;;;;;;5008790;28;20059;-81
2023/12/28 06:42:19;;;;;;;;;;;12.00;89.50;;;;;;5011683;28;19910;-81
2023/12/28 06:44:44;;;;;;;;;;;12.00;89.50;;;;;;5012551;28;19916;-81
2023/12/28 06:47:10;;;;;;;;;;;12.00;89.70;;;;;;5012227;28;19916;-81
2023/12/28 06:49:35;;;;;;;;;;;12.00;89.30;;;;;;5012736;28;19937;-81
2023/12/28 06:52:00;;;;;;;;;;;11.90;89.80;;;;;;5012014;28;19913;-81
2023/12/28 06:54:26;;;;;;;;;;;11.90;89.30;;;;;;5011181;28;19913;-82
2023/12/28 06:56:51;;;;;;;;;;;12.00;89.50;;;;;;5011520;28;19913;-81
2023/12/28 06:59:17;;;;;;;;;;;11.90;89.60;;;;;;5006600;28;19917;-81
2023/12/28 07:01:44;;;;;;;;;;;11.90;89.70;;;;;;5007346;28;19965;-81
2023/12/28 07:04:09;;;;;;;;;;;12.00;89.50;;;;;;4986246;28;19946;-81
2023/12/28 07:06:35;;;;;;;;;;;11.90;89.80;;;;;;4995352;28;19909;-81
2023/12/28 07:09:00;;;;;;;;;;;11.90;89.70;;;;;;5000367;28;19909;-81
2023/12/28 07:11:29;;;;;;;;;;;12.00;89.80;;;;;;5002987;28;19967;-81
2023/12/28 07:13:54;;;;;;;;;;;12.00;89.90;;;;;;5007325;28;19910;-81
2023/12/28 07:16:19;;;;;;;;;;;12.00;89.50;;;;;;5009124;28;19917;-81
2023/12/28 07:18:45;;;;;;;;;;;12.00;89.60;;;;;;5006903;28;19917;-81
2023/12/28 07:21:11;;;;;;;;;;;11.90;89.60;;;;;;5002762;28;19916;-81
2023/12/28 07:23:36;;;;;;;;;;;11.90;89.60;;;;;;5005266;28;19924;-81
2023/12/28 07:26:02;;;;;;;;;;;12.00;89.70;;;;;;5003533;28;19913;-81
2023/12/28 07:28:27;;;;;;;;;;;12.00;89.70;;;;;;5002461;28;19910;-81
2023/12/28 07:30:53;;;;;;;;;;;11.90;89.70;;;;;;5003189;28;19973;-81
2023/12/28 07:33:19;;;;;;;;;;;12.00;89.70;;;;;;4998424;28;20392;-81
2023/12/28 07:35:44;;;;;;;;;;;12.00;89.20;;;;;;5000036;28;19910;-80
2023/12/28 07:38:10;;;;;;;;;;;11.90;89.70;;;;;;5002307;28;20344;-81
2023/12/28 07:40:35;;;;;;;;;;;12.00;89.50;;;;;;5003502;28;19967;-81
2023/12/28 07:43:01;;;;;;;;;;;12.00;89.60;;;;;;5003028;28;19976;-81
2023/12/28 07:45:26;;;;;;;;;;;12.00;89.30;;;;;;5004400;28;20420;-81
2023/12/28 07:47:52;;;;;;;;;;;11.90;89.70;;;;;;5006968;28;20021;-81
2023/12/28 07:50:17;;;;;;;;;;;11.90;89.60;;;;;;5006634;28;20322;-81
2023/12/28 07:52:43;;;;;;;;;;;12.00;89.80;;;;;;5006881;28;19944;-82
2023/12/28 07:55:09;;;;;;;;;;;12.00;89.40;;;;;;5011671;28;19957;-81
2023/12/28 07:57:35;;;;;;;;;;;11.90;89.50;;;;;;5004508;28;19917;-81
2023/12/28 08:00:00;;;;;;;;;;;11.90;89.80;;;;;;5002799;28;19913;-81
2023/12/28 08:02:27;;;;;;;;;;;12.00;89.80;;;;;;5004138;28;20303;-81
2023/12/28 08:04:52;;;;;;;;;;;12.00;89.90;;;;;;5004542;28;20370;-81
2023/12/28 08:07:18;;;;;;;;;;;12.00;89.70;;;;;;5003400;28;19940;-81
2023/12/28 08:09:43;;;;;;;;;;;11.90;89.70;;;;;;5003784;28;19910;-82
2023/12/28 08:12:11;;;;;;;;;;;11.90;89.60;;;;;;5005998;28;19909;-83
2023/12/28 08:14:37;;;;;;;;;;;12.00;89.90;;;;;;5010705;28;20004;-82
2023/12/28 08:17:03;;;;;;;;;;;12.10;89.70;;;;;;5010809;28;19924;-81
2023/12/28 08:19:37;;;;;;;;;;;11.90;89.70;;;;;;5025734;28;19940;-81
2023/12/28 08:22:05;;;;;;;;;;;12.00;89.80;;;;;;5008062;28;19913;-81
2023/12/28 08:24:36;;;;;;;;;;;11.90;89.80;;;;;;5012800;28;19997;-81
2023/12/28 08:27:02;;;;;;;;;;;11.90;89.50;;;;;;5008663;28;19940;-81
2023/12/28 08:29:28;;;;;;;;;;;12.10;89.60;;;;;;5010284;28;19909;-82
2023/12/28 08:31:55;;;;;;;;;;;12.00;89.30;;;;;;5016979;28;19916;-82
2023/12/28 08:34:20;;;;;;;;;;;11.90;89.20;;;;;;5013324;28;19918;-82
2023/12/28 08:36:46;;;;;;;;;;;12.00;89.30;;;;;;5002600;28;20000;-81
2023/12/28 08:39:11;;;;;;;;;;;11.90;89.80;;;;;;4998610;28;20358;-81
2023/12/28 08:41:37;;;;;;;;;;;11.90;89.00;;;;;;5016327;28;20398;-82
2023/12/28 08:44:02;;;;;;;;;;;11.90;89.40;;;;;;4998463;28;20385;-82
2023/12/28 08:46:29;;;;;;;;;;;11.90;89.60;;;;;;4998167;28;19955;-81
2023/12/28 08:48:54;;;;;;;;;;;12.00;89.60;;;;;;4998301;28;19963;-81
2023/12/28 08:51:20;;;;;;;;;;;12.00;89.60;;;;;;4997981;28;19910;-81
2023/12/28 08:53:46;;;;;;;;;;;12.00;89.50;;;;;;4997989;28;20486;-81
2023/12/28 08:56:19;;;;;;;;;;;12.00;89.50;;;;;;4997824;28;19949;-81
2023/12/28 08:58:46;;;;;;;;;;;12.00;89.20;;;;;;5002584;28;19910;-81
2023/12/28 09:01:22;;;;;;;;;;;12.10;89.30;;;;;;5001087;28;19917;-81
2023/12/28 09:03:48;;;;;;;;;;;12.00;89.60;;;;;;4998647;28;19914;-81
2023/12/28 09:06:13;;;;;;;;;;;12.10;89.70;;;;;;4997389;28;19909;-81
2023/12/28 09:08:41;;;;;;;;;;;12.10;89.70;;;;;;4997408;28;19909;-81
2023/12/28 09:11:06;;;;;;;;;;;12.00;89.80;;;;;;4997501;28;19909;-81
2023/12/28 09:13:31;;;;;;;;;;;12.00;89.70;;;;;;4997285;28;20004;-81
2023/12/28 09:15:57;;;;;;;;;;;12.10;89.50;;;;;;4997218;28;20277;-81
2023/12/28 09:18:22;;;;;;;;;;;12.00;89.60;;;;;;4997007;28;19924;-81
2023/12/28 09:20:50;;;;;;;;;;;12.00;89.80;;;;;;4997350;28;20349;-81
2023/12/28 09:23:15;;;;;;;;;;;12.00;89.40;;;;;;4997260;28;19910;-81
2023/12/28 09:25:40;;;;;;;;;;;12.00;89.90;;;;;;4997085;28;19917;-81
2023/12/28 09:28:06;;;;;;;;;;;12.00;89.80;;;;;;4996836;28;19909;-81
2023/12/28 09:30:31;;;;;;;;;;;12.00;89.80;;;;;;4997561;28;19999;-81
2023/12/28 09:32:57;;;;;;;;;;;12.10;89.90;;;;;;5017173;28;19973;-80
2023/12/28 09:35:22;;;;;;;;;;;12.00;89.80;;;;;;5016256;28;19910;-81
2023/12/28 09:37:48;;;;;;;;;;;12.00;89.70;;;;;;5000600;28;19910;-81
2023/12/28 09:40:14;;;;;;;;;;;12.00;89.30;;;;;;5002143;28;20382;-82
2023/12/28 09:42:53;;;;;;;;;;;12.00;89.90;;;;;;5025611;28;19917;-81
2023/12/28 09:45:20;;;;;;;;;;;12.00;89.70;;;;;;5010443;28;19913;-81
2023/12/28 09:47:46;;;;;;;;;;;12.00;89.90;;;;;;4997183;28;19916;-81
2023/12/28 09:50:12;;;;;;;;;;;12.00;89.90;;;;;;5011405;28;19941;-81
2023/12/28 09:52:38;;;;;;;;;;;12.00;89.80;;;;;;4991290;28;19916;-81
2023/12/28 09:55:15;;;;;;;;;;;12.10;89.80;;;;;;4993829;28;19953;-82
2023/12/28 09:57:41;;;;;;;;;;;12.00;89.90;;;;;;5010020;28;19910;-82
2023/12/28 10:00:07;;;;;;;;;;;12.00;89.70;;;;;;5005124;28;19914;-82
2023/12/28 10:02:33;;;;;;;;;;;12.00;90.00;;;;;;5005440;28;19941;-81
2023/12/28 10:04:59;;;;;;;;;;;12.00;89.80;;;;;;5006249;28;19933;-82
2023/12/28 10:07:24;;;;;;;;;;;12.00;89.90;;;;;;4990262;28;19914;-82
2023/12/28 10:09:49;;;;;;;;;;;12.00;89.90;;;;;;4991146;28;19909;-82
2023/12/28 10:12:16;;;;;;;;;;;12.00;89.90;;;;;;4987669;28;19917;-82
2023/12/28 10:14:42;;;;;;;;;;;12.00;89.90;;;;;;4991144;28;19960;-82
2023/12/28 10:17:09;;;;;;;;;;;12.00;89.70;;;;;;5008692;28;19918;-81
2023/12/28 10:19:37;;;;;;;;;;;12.00;89.70;;;;;;4990168;28;19914;-82
2023/12/28 10:22:03;;;;;;;;;;;12.00;89.80;;;;;;5007222;28;19914;-82
2023/12/28 10:24:29;;;;;;;;;;;12.00;89.70;;;;;;5008555;28;20306;-81
2023/12/28 10:26:54;;;;;;;;;;;12.00;89.70;;;;;;4984213;28;19910;-82
2023/12/28 10:29:20;;;;;;;;;;;12.00;89.80;;;;;;4992159;28;19917;-82
2023/12/28 10:31:49;;;;;;;;;;;12.00;89.90;;;;;;5011797;28;19933;-82
2023/12/28 10:34:15;;;;;;;;;;;12.00;89.80;;;;;;5012748;28;19901;-81
2023/12/28 10:36:41;;;;;;;;;;;12.00;89.80;;;;;;5003687;28;19910;-82
2023/12/28 10:39:09;;;;;;;;;;;12.10;89.90;;;;;;5006378;28;19917;-82
2023/12/28 10:41:35;;;;;;;;;;;12.00;89.90;;;;;;5006752;28;19933;-81
2023/12/28 10:44:04;;;;;;;;;;;12.10;89.90;;;;;;5003339;28;19918;-81
2023/12/28 10:46:31;;;;;;;;;;;12.00;89.70;;;;;;5015153;28;19950;-83
2023/12/28 10:49:05;;;;;;;;;;;12.00;89.60;;;;;;5019654;28;19914;-83
2023/12/28 10:51:34;;;;;;;;;;;12.00;89.60;;;;;;4987529;28;19914;-82
2023/12/28 10:54:06;;;;;;;;;;;12.00;89.90;;;;;;4987231;28;19940;-81
2023/12/28 10:56:40;;;;;;;;;;;12.00;89.80;;;;;;5003960;28;19909;-81
2023/12/28 10:59:21;;;;;;;;;;;12.00;89.90;;;;;;5003915;28;19921;-81
2023/12/28 11:01:47;;;;;;;;;;;12.00;89.90;;;;;;5004207;28;19910;-82
2023/12/28 11:04:24;;;;;;;;;;;12.10;89.90;;;;;;5005249;28;19910;-81
2023/12/28 11:06:51;;;;;;;;;;;12.00;89.70;;;;;;5003668;28;19910;-81
2023/12/28 11:09:17;;;;;;;;;;;12.10;89.90;;;;;;5006606;28;20393;-81
2023/12/28 11:11:46;;;;;;;;;;;12.00;89.90;;;;;;5009002;28;19914;-82
2023/12/28 11:14:12;;;;;;;;;;;12.00;89.80;;;;;;5008366;28;19956;-81
2023/12/28 11:16:38;;;;;;;;;;;12.00;89.90;;;;;;5009257;28;19909;-81
2023/12/28 11:19:04;;;;;;;;;;;12.00;89.80;;;;;;5008478;28;20595;-82
2023/12/28 11:21:29;;;;;;;;;;;12.00;89.80;;;;;;5008357;28;19910;-81
2023/12/28 11:23:55;;;;;;;;;;;12.10;89.70;;;;;;5008838;28;19916;-82
2023/12/28 11:26:21;;;;;;;;;;;12.00;89.70;;;;;;5007377;28;19960;-81
2023/12/28 11:28:51;;;;;;;;;;;12.00;89.70;;;;;;5016812;28;19905;-81
2023/12/28 11:31:17;;;;;;;;;;;12.00;89.80;;;;;;5023459;28;20289;-82
2023/12/28 11:33:46;;;;;;;;;;;12.00;89.80;;;;;;5016654;28;19914;-81
2023/12/28 11:36:18;;;;;;;;;;;12.00;89.80;;;;;;5011725;28;19996;-81
2023/12/28 11:38:44;;;;;;;;;;;12.00;89.70;;;;;;5021113;28;19917;-81
2023/12/28 11:41:10;;;;;;;;;;;12.00;89.80;;;;;;5029440;28;20004;-81
2023/12/28 11:43:35;;;;;;;;;;;11.90;89.50;;;;;;4999929;28;19916;-81
2023/12/28 11:46:01;;;;;;;;;;;12.10;89.80;;;;;;4999810;28;19916;-81
2023/12/28 11:48:27;;;;;;;;;;;12.00;89.80;;;;;;4999533;28;19920;-81
2023/12/28 11:50:57;;;;;;;;;;;12.10;89.80;;;;;;4999397;28;20441;-81
2023/12/28 11:53:23;;;;;;;;;;;12.10;89.70;;;;;;4998666;28;19914;-81
2023/12/28 11:55:49;;;;;;;;;;;12.00;89.60;;;;;;4999181;28;19917;-81
2023/12/28 11:58:15;;;;;;;;;;;12.00;89.60;;;;;;4998615;28;19909;-81
2023/12/28 12:00:41;;;;;;;;;;;12.20;89.80;;;;;;4998757;28;19913;-81
2023/12/28 12:03:09;;;;;;;;;;;12.10;89.70;;;;;;4998690;28;20393;-81
2023/12/28 12:05:35;;;;;;;;;;;12.10;89.70;;;;;;4998475;28;19913;-81
2023/12/28 12:08:00;;;;;;;;;;;12.10;89.70;;;;;;4998240;28;20274;-81
2023/12/28 12:10:26;;;;;;;;;;;12.00;89.70;;;;;;4998455;28;19921;-81
2023/12/28 12:12:52;;;;;;;;;;;12.10;89.70;;;;;;4998433;28;19910;-81
2023/12/28 12:15:18;;;;;;;;;;;12.00;89.70;;;;;;4998936;28;19916;-81
2023/12/28 12:17:44;;;;;;;;;;;12.00;89.60;;;;;;4998388;28;19924;-81
2023/12/28 12:20:09;;;;;;;;;;;12.00;89.60;;;;;;4998241;28;19921;-81
2023/12/28 12:22:35;;;;;;;;;;;12.10;89.70;;;;;;4998590;28;19909;-82
2023/12/28 12:25:03;;;;;;;;;;;12.10;89.80;;;;;;4998488;28;20259;-81
2023/12/28 12:27:29;;;;;;;;;;;12.00;89.70;;;;;;4998174;28;19920;-81
2023/12/28 12:29:54;;;;;;;;;;;12.00;89.60;;;;;;4998228;28;19913;-81
2023/12/28 12:32:21;;;;;;;;;;;12.10;89.70;;;;;;4998094;28;20004;-81
2023/12/28 12:34:47;;;;;;;;;;;12.10;89.70;;;;;;4997753;28;19910;-81
2023/12/28 12:37:12;;;;;;;;;;;12.10;89.70;;;;;;4997486;28;19916;-81
2023/12/28 12:39:38;;;;;;;;;;;12.30;89.90;;;;;;4997689;28;19913;-81
2023/12/28 12:42:03;;;;;;;;;;;12.10;89.70;;;;;;4997986;28;20297;-81
2023/12/28 12:44:29;;;;;;;;;;;12.10;89.80;;;;;;4997998;28;20281;-81
2023/12/28 12:46:58;;;;;;;;;;;12.00;89.70;;;;;;4997947;28;20030;-81
2023/12/28 12:49:25;;;;;;;;;;;12.00;89.60;;;;;;4998006;28;19913;-81
2023/12/28 12:51:51;;;;;;;;;;;12.10;89.70;;;;;;4997873;28;19914;-82
2023/12/28 12:54:17;;;;;;;;;;;12.10;89.80;;;;;;4997296;28;20374;-81
2023/12/28 12:56:45;;;;;;;;;;;12.00;89.70;;;;;;4997320;28;19920;-81
2023/12/28 12:59:15;;;;;;;;;;;12.10;89.70;;;;;;4997453;28;20004;-81
2023/12/28 13:01:41;;;;;;;;;;;12.10;89.80;;;;;;4997807;28;19963;-81
2023/12/28 13:04:07;;;;;;;;;;;12.10;89.80;;;;;;4997695;28;19914;-81
2023/12/28 13:06:32;;;;;;;;;;;12.10;89.70;;;;;;4997347;28;19918;-81
2023/12/28 13:08:57;;;;;;;;;;;12.10;89.60;;;;;;4997221;28;19909;-81
2023/12/28 13:11:26;;;;;;;;;;;12.10;89.70;;;;;;4997253;28;19913;-81
2023/12/28 13:13:52;;;;;;;;;;;12.10;89.70;;;;;;4997159;28;20378;-80
2023/12/28 13:16:17;;;;;;;;;;;12.10;89.80;;;;;;5014705;28;19913;-81
2023/12/28 13:18:43;;;;;;;;;;;12.00;89.70;;;;;;5014730;28;19921;-81
2023/12/28 13:21:08;;;;;;;;;;;12.20;89.70;;;;;;4998107;28;20008;-81
2023/12/28 13:23:34;;;;;;;;;;;12.10;89.60;;;;;;4996976;28;19987;-80
2023/12/28 13:26:00;;;;;;;;;;;12.10;89.60;;;;;;4996502;28;20008;-80
2023/12/28 13:28:25;;;;;;;;;;;12.10;89.80;;;;;;4997168;28;20277;-81
2023/12/28 13:30:50;;;;;;;;;;;12.10;89.70;;;;;;4997295;28;19909;-81
2023/12/28 13:33:16;;;;;;;;;;;12.10;89.80;;;;;;4996023;28;19909;-80
2023/12/28 13:35:42;;;;;;;;;;;12.10;89.70;;;;;;4992645;28;19914;-80
2023/12/28 13:38:07;;;;;;;;;;;12.10;89.80;;;;;;4995125;28;19910;-79
2023/12/28 13:40:33;;;;;;;;;;;12.10;89.80;;;;;;4996295;28;19964;-80
2023/12/28 13:42:58;;;;;;;;;;;12.00;89.80;;;;;;4996590;28;20392;-81
2023/12/28 13:45:24;;;;;;;;;;;12.00;89.80;;;;;;4990273;28;19945;-81
2023/12/28 13:47:49;;;;;;;;;;;12.00;89.80;;;;;;4987966;28;19944;-81
2023/12/28 13:50:15;;;;;;;;;;;12.00;89.80;;;;;;4994262;28;19999;-81
2023/12/28 13:52:40;;;;;;;;;;;12.10;89.80;;;;;;5013793;28;19909;-81
2023/12/28 13:55:06;;;;;;;;;;;12.00;89.80;;;;;;4996081;28;19909;-81
2023/12/28 13:57:32;;;;;;;;;;;12.00;89.90;;;;;;4987268;28;19917;-80
2023/12/28 14:00:00;;;;;;;;;;;12.00;89.90;;;;;;5013355;28;19919;-79
2023/12/28 14:02:25;;;;;;;;;;;12.10;89.90;;;;;;4995641;28;20016;-80
2023/12/28 14:04:51;;;;;;;;;;;12.00;89.80;;;;;;4996031;28;20433;-80
2023/12/28 14:07:16;;;;;;;;;;;12.00;89.90;;;;;;4995050;28;19913;-80
2023/12/28 14:09:42;;;;;;;;;;;12.00;89.80;;;;;;4995697;28;20003;-79